52.3°F
Current conditions from King Hill
Updated every 5 minutes
 
  Tuesday June 27, 2017

Observations for Westford

Westford

44° 37' 39"N, 73° 02' 29"W, Elevation 850 ft.
Eastern Time

Hourly observations for the last 72 hours

Date Time Temperature (°F) Humi-
dity

(%)
Wind
(mph)
Pressure Rain (in)
Air Dew 6 Hour 1 Hr 3 Hr 6 Hr Day
Alt
(in)
Sea
Level

(mb)
Max Min
27 23:00 52.4 51.3 96 SSW 0 G 4 29.89 1012.1 0.02 0.06 0.38
27 22:00 52.9 51.8 96 Calm 29.88 1011.8 0.04 0.36
27 21:00 53.1 51.7 95 SSW 0 G 5 29.85 1010.9 0.32
27 20:00 54.2 52.8 63.4 54.2 95 SSW 1 G 5 29.83 1010.3 0.03 0.08 0.18 0.32
27 19:00 55.7 54.0 94 Calm 29.85 1010.7 0.05 0.29
27 18:00 58.5 55.3 89 NW 2 G 11 29.84 1010.6 0.24
27 17:00 61.1 55.9 83 Calm 29.84 1010.4 0.10 0.24
27 16:00 58.9 56.0 90 ESE 0 G 6 29.85 1010.8 0.06 0.24
27 15:00 55.2 52.3 90 W 0 G 6 29.86 1011.3 0.04 0.18
27 14:00 62.1 54.8 71.1 57.6 77 Calm 29.84 1010.5 0.14
27 13:00 65.9 57.4 74 W 1 G 7 29.85 1010.8 0.14
27 12:00 70.8 54.8 57 SSW 3 G 11 29.86 1011.3 0.14
27 11:00 68.2 58.4 71 SSW 2 G 9 29.89 1012.1 0.14
27 10:00 65.6 57.5 75 SSW 0 G 6 29.91 1012.7 0.14
27 09:00 61.8 56.3 82 SSW 4 G 9 29.92 1013.4 0.14
27 08:00 57.6 56.2 57.6 49.8 95 SSW 1 G 10 29.92 1013.4 0.14
27 07:00 53.0 52.2 97 Calm 29.92 1013.1 0.14
27 06:00 51.3 50.5 97 SSW 0 G 5 29.91 1013.0 0.14
27 05:00 51.0 49.9 96 SSW 0 G 5 29.91 1012.8 0.14
27 04:00 50.3 49.2 96 Calm 29.89 1012.2 0.14
27 03:00 52.7 51.6 96 SSW 1 G 6 29.89 1012.3 0.14
27 02:00 53.2 51.2 62.1 52.4 93 Calm 29.90 1012.5 0.14 0.14 0.14 0.14
27 01:00 55.0 52.4 91 SSW 0 G 6 29.90 1012.7 0.00
27 00:00 53.2 51.2 93 SSW 0 G 4 29.90 1012.5 0.00
26 23:00 54.7 51.5 89 Calm 29.91 1012.7 0.00
26 22:00 57.8 53.0 84 Calm 29.90 1012.6 0.00
26 21:00 58.4 53.6 84 Calm 29.89 1012.1 0.00
26 20:00 62.1 53.7 71.5 62.1 74 Calm 29.89 1012.3 0.00
26 19:00 66.5 51.7 59 W 0 G 1 29.88 1012.0 0.00
26 18:00 67.3 51.1 56 SW 0 G 7 29.88 1012.0 0.00
26 17:00 69.4 52.1 54 WNW 0 G 5 29.88 1012.0 0.00
26 16:00 70.4 52.5 53 W 1 G 8 29.89 1012.4 0.00
26 15:00 69.5 51.6 53 WNW 0 G 9 29.90 1012.5 0.00
26 14:00 68.4 53.5 69.1 58.7 59 W 1 G 6 29.90 1012.7 0.00
26 13:00 68.8 53.0 57 WNW 3 G 9 29.91 1013.0 0.00
26 12:00 64.2 53.8 69 W 0 G 7 29.93 1013.4 0.00
26 11:00 67.0 53.6 62 NW 0 G 12 29.92 1013.3 0.00
26 10:00 63.4 53.5 70 W 0 G 8 29.92 1013.1 0.00
26 09:00 62.1 54.5 76 WSW 1 G 6 29.91 1012.8 0.00
26 08:00 58.7 52.6 58.7 53.3 80 W 1 G 10 29.90 1012.6 0.00
26 07:00 56.6 51.8 84 WNW 0 G 11 29.88 1012.0 0.00
26 06:00 54.4 50.3 86 W 2 G 7 29.88 1011.8 0.00
26 05:00 53.7 50.2 88 WSW 0 G 5 29.87 1011.4 0.00
26 04:00 53.8 49.7 86 WSW 0 G 6 29.87 1011.4 0.00
26 03:00 54.7 50.3 85 WSW 0 G 10 29.86 1011.1 0.00
26 02:00 54.9 49.5 58.9 50.9 82 W 3 G 9 29.85 1010.9 0.00
26 01:00 55.0 52.4 91 W 1 G 8 29.85 1010.7 0.00
26 00:00 51.0 49.0 93 Calm 29.84 1010.6 0.00
25 23:00 52.9 50.6 92 Calm 29.84 1010.6 0.00
25 22:00 55.6 51.8 87 Calm 29.84 1010.7 0.00
25 21:00 57.6 51.5 80 ESE 0 G 1 29.85 1010.8 0.00
25 20:00 58.8 50.5 75.6 58.6 74 N 0 G 4 29.86 1011.1 0.00
25 19:00 64.1 54.9 72 N 0 G 5 29.84 1010.6 0.00
25 18:00 65.3 57.2 75 NW 0 G 2 29.82 1009.8 0.00
25 17:00 69.3 59.5 71 WNW 1 G 9 29.82 1009.8 0.00
25 16:00 71.7 58.4 63 WNW 6 G 15 29.80 1009.0 0.00
25 15:00 74.7 59.9 60 SSW 4 G 15 29.79 1008.7 0.00
25 14:00 73.8 59.1 75.4 63.5 60 SW 4 G 11 29.80 1009.3 0.00
25 13:00 74.2 59.9 61 SW 0 G 9 29.82 1010.0 0.00
25 12:00 72.8 58.6 61 W 0 G 8 29.85 1010.8 0.00
25 11:00 71.4 58.6 64 W 0 G 9 29.86 1011.2 0.00
25 10:00 69.3 59.5 71 WSW 1 G 6 29.86 1011.3 0.00
25 09:00 66.7 58.2 74 NW 0 G 9 29.86 1011.3 0.00
25 08:00 63.5 56.9 63.5 51.6 79 SSW 2 G 7 29.86 1011.1 0.00
25 07:00 55.9 55.1 97 WSW 0 G 2 29.85 1010.9 0.00
25 06:00 52.2 51.1 96 Calm 29.84 1010.4 0.00
25 05:00 52.2 50.5 94 Calm 29.82 1009.9 0.00
25 04:00 55.8 52.6 89 Calm 29.81 1009.4 0.00
25 03:00 56.2 52.7 88 SW 0 G 5 29.81 1009.5 0.00
25 02:00 55.6 53.0 69.4 55.3 91 SW 0 G 5 29.80 1009.1 0.00
25 01:00 56.0 53.1 90 Calm 29.78 1008.6 0.00
25 00:00 57.7 53.2 85 Calm 29.78 1008.5 0.72

Data generated by WxSolution Version 1.9.0.6, Build 2017.01.14.


 
 
Current Radar Loop:

Copyright © WestfordWeather.net 2007-2017. All rights reserved.